createdAt,value
2023-04-19T00:02:10.578Z,9.13
2023-04-19T00:04:38.278Z,9.18
2023-04-19T00:07:05.214Z,9.00
2023-04-19T00:09:31.922Z,10.80
2023-04-19T00:12:00.948Z,9.20
2023-04-19T00:14:27.617Z,10.50
2023-04-19T00:16:54.384Z,9.10
2023-04-19T00:19:22.312Z,10.05
2023-04-19T00:21:49.494Z,8.20
2023-04-19T00:24:16.257Z,8.75
2023-04-19T00:26:43.027Z,9.30
2023-04-19T00:29:10.394Z,9.55
2023-04-19T00:31:39.599Z,7.78
2023-04-19T00:34:07.607Z,8.20
2023-04-19T00:36:34.377Z,9.73
2023-04-19T00:39:01.181Z,9.90
2023-04-19T00:41:27.844Z,7.93
2023-04-19T00:43:54.616Z,9.15
2023-04-19T00:46:22.205Z,8.32
2023-04-19T00:48:50.071Z,10.43
2023-04-19T00:51:16.991Z,9.93
2023-04-19T00:53:43.834Z,8.20
2023-04-19T00:56:11.187Z,8.32
2023-04-19T00:58:39.069Z,9.13
2023-04-19T01:01:06.369Z,9.38
2023-04-19T01:03:34.887Z,9.05
2023-04-19T01:06:02.475Z,8.73
2023-04-19T01:08:29.157Z,10.18
2023-04-19T01:10:55.906Z,9.27
2023-04-19T01:13:22.661Z,10.27
2023-04-19T01:15:52.666Z,9.57
2023-04-19T01:18:19.465Z,11.50
2023-04-19T01:20:46.259Z,11.10
2023-04-19T01:23:12.962Z,7.95
2023-04-19T01:25:39.609Z,8.93
2023-04-19T01:28:06.484Z,9.75
2023-04-19T01:30:34.319Z,9.48
2023-04-19T01:33:01.018Z,9.63
2023-04-19T01:35:27.683Z,10.15
2023-04-19T01:37:56.234Z,9.68
2023-04-19T01:40:25.521Z,8.93
2023-04-19T01:42:52.582Z,8.43
2023-04-19T01:45:19.895Z,11.30
2023-04-19T01:47:46.593Z,9.25
2023-04-19T01:50:13.304Z,9.73
2023-04-19T01:52:39.984Z,9.77
2023-04-19T01:55:08.091Z,10.70
2023-04-19T01:57:34.779Z,8.77
2023-04-19T02:00:02.240Z,10.15
2023-04-19T02:02:29.034Z,9.50
2023-04-19T02:04:55.894Z,9.50
2023-04-19T02:07:22.628Z,7.97
2023-04-19T02:09:49.311Z,9.38
2023-04-19T02:12:16.318Z,9.00
2023-04-19T02:14:42.987Z,8.43
2023-04-19T02:17:09.643Z,10.13
2023-04-19T02:19:36.434Z,8.40
2023-04-19T02:22:03.169Z,9.95
2023-04-19T02:24:29.832Z,9.40
2023-04-19T02:26:56.493Z,8.35
2023-04-19T02:29:23.214Z,9.75
2023-04-19T02:31:50.393Z,8.93
2023-04-19T02:34:17.657Z,10.20
2023-04-19T02:36:44.628Z,9.75
2023-04-19T02:39:11.255Z,10.80
2023-04-19T02:41:37.936Z,11.18
2023-04-19T02:44:04.861Z,10.07
2023-04-19T02:46:31.489Z,9.95
2023-04-19T02:49:00.920Z,10.82
2023-04-19T02:51:27.682Z,8.73
2023-04-19T02:53:54.365Z,10.07
2023-04-19T02:56:21.048Z,11.68
2023-04-19T02:58:47.737Z,10.02
2023-04-19T03:01:14.585Z,11.07
2023-04-19T03:03:41.402Z,10.80
2023-04-19T03:06:08.918Z,11.02
2023-04-19T03:08:36.261Z,9.90
2023-04-19T03:11:02.976Z,10.38
2023-04-19T03:13:29.610Z,10.68
2023-04-19T03:15:56.407Z,12.02
2023-04-19T03:18:23.115Z,8.48
2023-04-19T03:20:49.753Z,10.27
2023-04-19T03:23:16.602Z,10.95
2023-04-19T03:25:43.324Z,12.00
2023-04-19T03:28:10.032Z,11.73
2023-04-19T03:30:36.688Z,10.45
2023-04-19T03:33:03.355Z,10.05
2023-04-19T03:35:32.153Z,13.77
2023-04-19T03:37:59.192Z,11.90
2023-04-19T03:40:25.878Z,11.50
2023-04-19T03:42:52.581Z,11.63
2023-04-19T03:45:19.529Z,12.82
2023-04-19T03:47:46.313Z,12.52
2023-04-19T03:50:13.136Z,8.85
2023-04-19T03:52:39.848Z,11.20
2023-04-19T03:55:07.097Z,13.10
2023-04-19T03:57:33.765Z,11.65
2023-04-19T04:00:01.368Z,13.07
2023-04-19T04:02:28.154Z,13.25
2023-04-19T04:04:55.661Z,12.60
2023-04-19T04:07:23.235Z,10.25
2023-04-19T04:09:50.593Z,12.13
2023-04-19T04:12:17.367Z,12.85
2023-04-19T04:14:44.070Z,9.63
2023-04-19T04:17:12.181Z,10.90
2023-04-19T04:19:38.925Z,16.10
2023-04-19T04:22:06.708Z,10.80
2023-04-19T04:24:41.875Z,13.20
2023-04-19T04:27:10.297Z,11.30
2023-04-19T04:29:37.965Z,11.05
2023-04-19T04:32:08.627Z,11.63
2023-04-19T04:34:36.628Z,10.30
2023-04-19T04:37:04.125Z,12.32
2023-04-19T04:39:30.944Z,10.43
2023-04-19T04:41:57.774Z,11.40
2023-04-19T04:44:24.852Z,11.73
2023-04-19T04:46:51.722Z,11.68
2023-04-19T04:49:18.415Z,11.38
2023-04-19T04:51:45.091Z,12.00
2023-04-19T04:54:11.802Z,12.13
2023-04-19T04:56:38.623Z,10.77
2023-04-19T04:59:05.586Z,10.75
2023-04-19T05:01:32.353Z,14.57
2023-04-19T05:03:59.427Z,10.98
2023-04-19T05:06:26.607Z,13.63
2023-04-19T05:08:53.347Z,12.55
2023-04-19T05:11:20.963Z,11.32
2023-04-19T05:13:47.730Z,11.25
2023-04-19T05:16:14.396Z,11.63
2023-04-19T05:18:41.173Z,12.18
2023-04-19T05:21:10.380Z,11.23
2023-04-19T05:23:38.334Z,12.40
2023-04-19T05:26:05.084Z,12.48
2023-04-19T05:28:31.884Z,11.85
2023-04-19T05:30:58.675Z,11.40
2023-04-19T05:33:25.401Z,11.70
2023-04-19T05:35:52.090Z,11.98
2023-04-19T05:38:18.852Z,12.60
2023-04-19T05:40:45.773Z,13.18
2023-04-19T05:43:12.538Z,10.90
2023-04-19T05:45:41.346Z,12.55
2023-04-19T05:48:08.112Z,13.70
2023-04-19T05:50:36.678Z,12.68
2023-04-19T05:53:04.039Z,11.48
2023-04-19T05:55:31.011Z,14.25
2023-04-19T05:57:58.911Z,12.95
2023-04-19T06:00:25.802Z,11.52
2023-04-19T06:02:52.668Z,11.73
2023-04-19T06:05:19.860Z,14.30
2023-04-19T06:07:54.592Z,11.23
2023-04-19T06:10:23.458Z,14.20
2023-04-19T06:12:50.308Z,12.32
2023-04-19T06:15:17.421Z,12.63
2023-04-19T06:17:44.182Z,11.77
2023-04-19T06:20:11.113Z,12.55
2023-04-19T06:22:45.845Z,11.77
2023-04-19T06:25:12.557Z,10.45
2023-04-19T06:27:39.257Z,11.90
2023-04-19T06:30:06.566Z,11.20
2023-04-19T06:32:33.232Z,12.23
2023-04-19T06:35:00.137Z,10.80
2023-04-19T06:37:26.899Z,11.45
2023-04-19T06:39:53.557Z,12.50
2023-04-19T06:42:20.865Z,13.45
2023-04-19T06:44:47.545Z,12.02
2023-04-19T06:47:14.347Z,11.95
2023-04-19T06:49:41.030Z,11.77
2023-04-19T06:52:07.701Z,12.90
2023-04-19T06:54:34.600Z,10.50
2023-04-19T06:57:02.254Z,11.90
2023-04-19T06:59:31.712Z,12.13
2023-04-19T07:01:58.540Z,15.07
2023-04-19T07:04:26.826Z,12.68
2023-04-19T07:06:53.681Z,11.95
2023-04-19T07:09:20.570Z,12.07
2023-04-19T07:11:47.922Z,13.80
2023-04-19T07:14:14.989Z,13.52
2023-04-19T07:16:41.993Z,13.27
2023-04-19T07:19:10.857Z,16.23
2023-04-19T07:21:39.179Z,19.05
2023-04-19T07:24:06.926Z,13.00
2023-04-19T07:26:34.409Z,14.55
2023-04-19T07:29:01.389Z,13.40
2023-04-19T07:31:28.293Z,15.40
2023-04-19T07:33:55.131Z,13.80
2023-04-19T07:36:21.843Z,21.20
2023-04-19T07:38:48.629Z,17.95
2023-04-19T07:41:15.456Z,16.45
2023-04-19T07:43:42.144Z,15.07
2023-04-19T07:46:11.587Z,16.92
2023-04-19T07:48:38.474Z,17.23
2023-04-19T07:51:10.285Z,20.15
2023-04-19T07:53:37.865Z,16.25
2023-04-19T07:56:04.892Z,17.63
2023-04-19T07:58:31.699Z,17.33
2023-04-19T08:00:58.584Z,21.90
2023-04-19T08:03:25.466Z,16.35
2023-04-19T08:05:52.410Z,20.23
2023-04-19T08:08:19.346Z,18.23
2023-04-19T08:10:46.077Z,19.48
2023-04-19T08:13:12.820Z,19.88
2023-04-19T08:18:11.929Z,20.58
2023-04-19T08:20:38.672Z,19.33
2023-04-19T08:23:18.097Z,22.33
2023-04-19T08:25:49.359Z,21.02
2023-04-19T08:28:17.020Z,23.25
2023-04-19T08:30:43.723Z,19.52
2023-04-19T08:33:10.945Z,22.85
2023-04-19T08:35:39.184Z,20.67
2023-04-19T08:38:05.942Z,21.55
2023-04-19T08:40:33.537Z,18.48
2023-04-19T08:43:04.775Z,17.60
2023-04-19T08:45:31.842Z,19.48
2023-04-19T08:48:01.818Z,18.73
2023-04-19T08:53:12.110Z,19.63
2023-04-19T08:56:06.817Z,15.88
2023-04-19T09:01:06.213Z,17.38
2023-04-19T09:03:40.883Z,16.60
2023-04-19T09:06:12.132Z,14.38
2023-04-19T09:08:40.600Z,15.98
2023-04-19T09:11:07.542Z,12.93
2023-04-19T09:13:36.788Z,14.20
2023-04-19T09:16:04.887Z,14.13
2023-04-19T09:18:33.306Z,15.90
2023-04-19T09:21:02.688Z,13.77
2023-04-19T09:23:29.288Z,12.82
2023-04-19T09:28:28.924Z,13.77
2023-04-19T09:31:06.799Z,12.80
2023-04-19T09:33:43.443Z,13.00
2023-04-19T09:36:10.196Z,12.68
2023-04-19T09:38:48.876Z,13.30
2023-04-19T09:41:17.397Z,11.65
2023-04-19T09:44:07.437Z,10.15
2023-04-19T09:46:32.167Z,12.10
2023-04-19T09:49:27.261Z,10.23
2023-04-19T09:52:05.503Z,11.23
2023-04-19T09:54:32.768Z,10.77
2023-04-19T09:57:01.566Z,9.45
2023-04-19T09:59:28.486Z,10.57
2023-04-19T10:01:57.004Z,11.88
2023-04-19T10:04:29.411Z,11.18
2023-04-19T10:07:29.485Z,10.07
2023-04-19T10:09:59.905Z,10.30
2023-04-19T10:15:02.898Z,10.27
2023-04-19T10:17:29.613Z,8.40
2023-04-19T10:20:06.766Z,10.07
2023-04-19T10:22:36.362Z,8.93
2023-04-19T10:25:11.598Z,10.85
2023-04-19T10:27:39.033Z,9.32
2023-04-19T10:30:12.567Z,9.15
2023-04-19T10:32:41.101Z,10.75
2023-04-19T10:35:17.335Z,9.95
2023-04-19T10:38:03.267Z,8.85
2023-04-19T10:40:50.920Z,10.68
2023-04-19T10:43:18.809Z,10.85
2023-04-19T10:45:46.362Z,9.02
2023-04-19T10:48:30.753Z,10.15
2023-04-19T10:50:59.996Z,8.35
2023-04-19T10:53:47.996Z,10.43
2023-04-19T10:56:16.334Z,8.27
2023-04-19T10:59:05.530Z,8.20
2023-04-19T11:01:39.788Z,5.93
2023-04-19T11:04:08.992Z,8.30
2023-04-19T11:06:37.117Z,8.52
2023-04-19T11:09:05.674Z,7.90
2023-04-19T11:11:35.775Z,6.63
2023-04-19T11:14:04.242Z,7.18
2023-04-19T11:16:44.521Z,7.65
2023-04-19T11:19:20.408Z,7.35
2023-04-19T11:21:48.026Z,7.35
2023-04-19T11:24:18.582Z,7.70
2023-04-19T11:26:47.005Z,7.55
2023-04-19T11:29:14.163Z,5.55
2023-04-19T11:31:43.681Z,4.80
2023-04-19T11:34:10.704Z,5.95
2023-04-19T11:36:49.896Z,5.18
2023-04-19T11:39:16.664Z,5.10
2023-04-19T11:41:43.414Z,5.15
2023-04-19T11:44:14.987Z,6.28
2023-04-19T11:46:42.296Z,4.57
2023-04-19T11:49:08.886Z,7.53
2023-04-19T11:51:35.624Z,4.93
2023-04-19T11:54:12.244Z,5.05
2023-04-19T11:56:57.633Z,3.78
2023-04-19T11:59:24.573Z,4.78
2023-04-19T12:01:51.452Z,4.45
2023-04-19T12:04:19.739Z,4.05
2023-04-19T12:06:59.569Z,4.22
2023-04-19T12:09:26.459Z,4.03
2023-04-19T12:11:53.516Z,4.68
2023-04-19T12:14:22.974Z,3.50
2023-04-19T12:17:11.850Z,4.82
2023-04-19T12:19:43.298Z,4.60
2023-04-19T12:22:13.758Z,4.35
2023-04-19T12:24:41.163Z,4.90
2023-04-19T12:27:08.509Z,3.45
2023-04-19T12:29:36.082Z,4.93
2023-04-19T12:32:03.495Z,2.78
2023-04-19T12:34:30.176Z,2.58
2023-04-19T12:36:57.282Z,2.03
2023-04-19T12:39:24.767Z,2.80
2023-04-19T12:41:51.467Z,1.83
2023-04-19T12:44:18.158Z,2.55
2023-04-19T12:46:45.309Z,2.75
2023-04-19T12:49:12.402Z,1.50
2023-04-19T12:51:39.181Z,2.60
2023-04-19T12:54:07.567Z,3.88
2023-04-19T12:56:35.021Z,4.00
2023-04-19T12:59:01.779Z,2.10
2023-04-19T13:01:28.570Z,2.30
2023-04-19T13:03:58.811Z,1.83
2023-04-19T13:06:26.190Z,1.38
2023-04-19T13:08:54.659Z,3.53
2023-04-19T13:11:23.527Z,1.20
2023-04-19T13:13:51.552Z,1.60
2023-04-19T13:16:18.747Z,1.83
2023-04-19T13:18:45.611Z,1.63
2023-04-19T13:21:12.377Z,1.20
2023-04-19T13:23:39.085Z,1.73
2023-04-19T13:26:06.651Z,1.55
2023-04-19T13:28:35.721Z,1.35
2023-04-19T13:31:03.985Z,2.28
2023-04-19T13:33:30.553Z,1.75
2023-04-19T13:35:57.245Z,1.13
2023-04-19T13:38:24.714Z,2.20
2023-04-19T13:40:51.466Z,1.70
2023-04-19T13:43:18.365Z,2.03
2023-04-19T13:45:45.508Z,2.92
2023-04-19T13:48:12.491Z,1.63
2023-04-19T13:50:39.242Z,1.80
2023-04-19T13:53:06.035Z,3.13
2023-04-19T13:55:33.161Z,3.72
2023-04-19T13:57:59.947Z,2.90
2023-04-19T14:00:26.948Z,2.03
2023-04-19T14:02:55.194Z,1.48
2023-04-19T14:05:22.196Z,2.75
2023-04-19T14:07:48.964Z,3.42
2023-04-19T14:10:15.874Z,2.25
2023-04-19T14:12:42.506Z,3.33
2023-04-19T14:15:09.517Z,3.08
2023-04-19T14:17:36.418Z,1.40
2023-04-19T14:20:06.356Z,1.83
2023-04-19T14:22:35.093Z,1.80
2023-04-19T14:25:02.054Z,2.30
2023-04-19T14:27:28.865Z,1.70
2023-04-19T14:29:55.627Z,2.33
2023-04-19T14:32:26.493Z,3.10
2023-04-19T14:34:54.734Z,2.58
2023-04-19T14:37:23.127Z,1.80
2023-04-19T14:39:50.182Z,3.30
2023-04-19T14:42:16.905Z,4.32
2023-04-19T14:44:43.879Z,4.15
2023-04-19T14:47:10.953Z,2.00
2023-04-19T14:49:37.690Z,2.08
2023-04-19T14:52:04.931Z,4.45
2023-04-19T14:54:31.542Z,2.05
2023-04-19T14:56:58.386Z,2.50
2023-04-19T14:59:25.196Z,2.28
2023-04-19T15:01:52.012Z,2.75
2023-04-19T15:04:18.861Z,2.35
2023-04-19T15:06:46.046Z,1.67
2023-04-19T15:09:12.969Z,3.53
2023-04-19T15:11:39.712Z,1.85
2023-04-19T15:14:06.359Z,2.22
2023-04-19T15:16:33.200Z,3.95
2023-04-19T15:19:00.023Z,3.22
2023-04-19T15:21:28.208Z,2.10
2023-04-19T15:23:54.942Z,3.45
2023-04-19T15:26:23.626Z,2.55
2023-04-19T15:28:50.241Z,4.40
2023-04-19T15:31:17.510Z,4.72
2023-04-19T15:33:44.187Z,1.98
2023-04-19T15:36:10.839Z,4.47
2023-04-19T15:38:37.566Z,3.88
2023-04-19T15:41:04.499Z,1.75
2023-04-19T15:43:31.482Z,2.63
2023-04-19T15:45:58.204Z,1.60
2023-04-19T15:48:24.991Z,2.33
2023-04-19T15:50:51.684Z,1.67
2023-04-19T15:53:18.448Z,2.10
2023-04-19T15:55:46.941Z,3.05
2023-04-19T15:58:13.850Z,2.40
2023-04-19T16:00:40.642Z,2.47
2023-04-19T16:03:11.382Z,3.42
2023-04-19T16:05:38.408Z,2.85
2023-04-19T16:08:06.971Z,2.70
2023-04-19T16:10:34.282Z,1.75
2023-04-19T16:13:01.420Z,1.92
2023-04-19T16:15:28.721Z,2.85
2023-04-19T16:17:55.730Z,2.13
2023-04-19T16:20:22.585Z,2.83
2023-04-19T16:22:49.537Z,2.83
2023-04-19T16:25:17.854Z,1.60
2023-04-19T16:27:45.759Z,2.53
2023-04-19T16:30:13.545Z,1.80
2023-04-19T16:32:41.577Z,1.98
2023-04-19T16:35:09.224Z,2.30
2023-04-19T16:37:35.958Z,2.58
2023-04-19T16:40:08.370Z,2.70
2023-04-19T16:42:36.302Z,6.28
2023-04-19T16:45:04.082Z,2.97
2023-04-19T16:47:31.120Z,2.20
2023-04-19T16:49:58.530Z,2.20
2023-04-19T16:52:27.065Z,2.95
2023-04-19T16:54:53.870Z,1.90
2023-04-19T16:57:20.742Z,2.58
2023-04-19T16:59:47.972Z,2.80
2023-04-19T17:02:14.823Z,4.03
2023-04-19T17:04:42.246Z,2.92
2023-04-19T17:07:09.104Z,2.22
2023-04-19T17:09:36.218Z,2.70
2023-04-19T17:12:03.472Z,4.07
2023-04-19T17:14:30.831Z,4.35
2023-04-19T17:16:57.560Z,2.40
2023-04-19T17:19:24.318Z,2.75
2023-04-19T17:21:51.040Z,4.03
2023-04-19T17:24:18.157Z,3.20
2023-04-19T17:26:44.867Z,4.13
2023-04-19T17:29:11.561Z,4.13
2023-04-19T17:31:38.307Z,3.22
2023-04-19T17:34:05.334Z,3.22
2023-04-19T17:36:31.945Z,3.00
2023-04-19T17:38:58.683Z,5.45
2023-04-19T17:41:25.317Z,4.88
2023-04-19T17:43:51.992Z,4.38
2023-04-19T17:46:19.228Z,4.38
2023-04-19T17:48:46.295Z,4.38
2023-04-19T17:51:13.004Z,4.47
2023-04-19T17:53:39.715Z,3.95
2023-04-19T17:56:06.468Z,3.70
2023-04-19T17:58:36.455Z,3.55
2023-04-19T18:01:03.772Z,2.78
2023-04-19T18:03:30.937Z,2.45
2023-04-19T18:05:58.309Z,3.05
2023-04-19T18:08:25.037Z,2.67
2023-04-19T18:10:51.751Z,8.52
2023-04-19T18:13:18.436Z,3.55
2023-04-19T18:15:45.124Z,3.53
2023-04-19T18:18:11.835Z,2.70
2023-04-19T18:20:38.556Z,4.03
2023-04-19T18:23:05.259Z,6.72
2023-04-19T18:25:35.068Z,4.53
2023-04-19T18:28:01.788Z,3.45
2023-04-19T18:30:28.564Z,4.05
2023-04-19T18:32:55.312Z,7.07
2023-04-19T18:35:22.197Z,3.75
2023-04-19T18:37:48.945Z,3.30
2023-04-19T18:40:15.923Z,5.18
2023-04-19T18:42:42.625Z,5.25
2023-04-19T18:45:09.847Z,3.55
2023-04-19T18:47:36.627Z,4.70
2023-04-19T18:50:06.309Z,3.00
2023-04-19T18:52:35.633Z,3.78
2023-04-19T18:55:03.138Z,4.35
2023-04-19T18:57:34.127Z,5.47
2023-04-19T19:00:02.032Z,4.13
2023-04-19T19:02:29.147Z,3.00
2023-04-19T19:04:58.354Z,3.95
2023-04-19T19:10:01.488Z,3.38
2023-04-19T19:12:29.203Z,3.63
2023-04-19T19:14:55.965Z,3.65
2023-04-19T19:17:24.254Z,4.35
2023-04-19T19:19:51.188Z,7.47
2023-04-19T19:22:27.908Z,34.30
2023-04-19T19:24:55.799Z,13.77
2023-04-19T19:27:22.708Z,4.88
2023-04-19T19:29:49.383Z,3.80
2023-04-19T19:32:16.208Z,4.32
2023-04-19T19:34:51.849Z,6.22
2023-04-19T19:37:22.061Z,6.05
2023-04-19T19:39:48.738Z,4.18
2023-04-19T19:42:17.498Z,3.47
2023-04-19T19:44:44.747Z,4.05
2023-04-19T19:47:12.593Z,4.75
2023-04-19T19:52:09.007Z,4.15
2023-04-19T19:54:35.790Z,5.18
2023-04-19T19:59:34.854Z,16.42
2023-04-19T20:02:03.544Z,14.05
2023-04-19T20:04:30.949Z,8.25
2023-04-19T20:07:25.880Z,6.53
2023-04-19T20:09:45.209Z,4.82
2023-04-19T20:12:13.584Z,6.43
2023-04-19T20:14:40.709Z,6.32
2023-04-19T20:17:07.656Z,7.57
2023-04-19T20:19:35.746Z,6.18
2023-04-19T20:22:02.514Z,5.55
2023-04-19T20:24:30.874Z,4.43
2023-04-19T20:26:57.735Z,4.60
2023-04-19T20:29:24.503Z,6.15
2023-04-19T20:31:51.255Z,3.83
2023-04-19T20:34:18.145Z,3.55
2023-04-19T20:36:48.181Z,5.18
2023-04-19T20:39:15.158Z,4.25
2023-04-19T20:41:43.758Z,13.05
2023-04-19T20:44:10.706Z,12.13
2023-04-19T20:46:37.401Z,7.13
2023-04-19T20:49:04.114Z,3.75
2023-04-19T20:51:31.821Z,4.75
2023-04-19T20:53:58.494Z,5.43
2023-04-19T20:56:27.618Z,4.47
2023-04-19T20:58:54.369Z,7.40
2023-04-19T21:01:23.826Z,4.32
2023-04-19T21:03:51.248Z,4.63
2023-04-19T21:06:19.641Z,6.22
2023-04-19T21:08:49.064Z,7.30
2023-04-19T21:11:16.430Z,6.72
2023-04-19T21:13:43.127Z,5.63
2023-04-19T21:16:09.839Z,4.38
2023-04-19T21:18:36.517Z,6.93
2023-04-19T21:21:03.267Z,5.97
2023-04-19T21:23:29.969Z,4.93
2023-04-19T21:25:56.744Z,3.92
2023-04-19T21:28:25.110Z,3.97
2023-04-19T21:30:53.281Z,3.63
2023-04-19T21:33:19.917Z,5.22
2023-04-19T21:35:46.651Z,6.38
2023-04-19T21:38:13.398Z,8.13
2023-04-19T21:40:40.046Z,4.15
2023-04-19T21:43:06.742Z,8.70
2023-04-19T21:45:33.627Z,5.93
2023-04-19T21:48:00.344Z,3.85
2023-04-19T21:50:27.059Z,4.65
2023-04-19T21:52:53.744Z,9.77
2023-04-19T21:55:21.040Z,6.55
2023-04-19T21:57:47.665Z,4.18
2023-04-19T22:00:15.782Z,4.80
2023-04-19T22:02:42.632Z,4.10
2023-04-19T22:05:09.674Z,6.75
2023-04-19T22:07:40.188Z,3.22
2023-04-19T22:10:07.688Z,5.53
2023-04-19T22:12:37.342Z,5.00
2023-04-19T22:15:08.048Z,3.60
2023-04-19T22:17:37.084Z,5.93
2023-04-19T22:20:09.003Z,7.82
2023-04-19T22:22:35.988Z,4.25
2023-04-19T22:25:02.803Z,3.65
2023-04-19T22:27:29.455Z,4.57
2023-04-19T22:29:56.124Z,3.67
2023-04-19T22:32:23.006Z,4.32
2023-04-19T22:34:49.811Z,4.15
2023-04-19T22:37:16.478Z,3.53
2023-04-19T22:39:43.196Z,3.83
2023-04-19T22:42:09.839Z,4.00
2023-04-19T22:44:36.548Z,3.50
2023-04-19T22:47:03.494Z,5.47
2023-04-19T22:49:30.319Z,4.72
2023-04-19T22:51:58.495Z,5.25
2023-04-19T22:54:25.765Z,5.45
2023-04-19T22:56:52.641Z,4.55
2023-04-19T22:59:19.437Z,4.60
2023-04-19T23:01:46.398Z,5.30
2023-04-19T23:04:14.757Z,5.17
2023-04-19T23:06:44.235Z,7.97
2023-04-19T23:09:13.657Z,7.40
2023-04-19T23:11:41.006Z,5.20
2023-04-19T23:14:10.322Z,5.70
2023-04-19T23:16:38.547Z,6.50
2023-04-19T23:19:07.435Z,7.80
2023-04-19T23:21:34.643Z,6.72
2023-04-19T23:24:01.331Z,8.87
2023-04-19T23:26:30.033Z,5.43
2023-04-19T23:28:56.818Z,5.57
2023-04-19T23:31:23.757Z,5.13
2023-04-19T23:33:50.497Z,5.30
2023-04-19T23:36:17.152Z,6.57
2023-04-19T23:38:43.840Z,5.00
2023-04-19T23:41:12.098Z,4.47
2023-04-19T23:43:39.008Z,6.10
2023-04-19T23:46:07.057Z,7.07
2023-04-19T23:48:33.888Z,4.80
2023-04-19T23:51:01.370Z,9.97
2023-04-19T23:53:28.008Z,6.53
2023-04-19T23:55:54.872Z,5.97
2023-04-19T23:58:21.674Z,4.32
